createdAt,value
2017-01-10T00:00:07.623Z,956.30
2017-01-10T00:01:08.153Z,956.27
2017-01-10T00:02:07.641Z,956.25
2017-01-10T00:03:08.072Z,956.19
2017-01-10T00:04:07.578Z,956.18
2017-01-10T00:05:08.224Z,956.18
2017-01-10T00:06:07.752Z,956.13
2017-01-10T00:07:08.471Z,956.16
2017-01-10T00:08:07.540Z,956.14
2017-01-10T00:09:08.241Z,956.11
2017-01-10T00:10:07.853Z,956.10
2017-01-10T00:11:07.368Z,956.06
2017-01-10T00:12:07.846Z,956.10
2017-01-10T00:13:07.414Z,956.07
2017-01-10T00:14:08.276Z,956.08
2017-01-10T00:15:07.871Z,956.01
2017-01-10T00:16:07.403Z,956.01
2017-01-10T00:17:08.030Z,955.97
2017-01-10T00:18:07.619Z,955.98
2017-01-10T00:19:08.168Z,955.97
2017-01-10T00:20:07.906Z,955.93
2017-01-10T00:21:07.422Z,955.93
2017-01-10T00:22:07.990Z,955.91
2017-01-10T00:23:07.485Z,955.87
2017-01-10T00:24:08.081Z,955.87
2017-01-10T00:25:07.646Z,955.86
2017-01-10T00:26:08.256Z,955.79
2017-01-10T00:27:07.824Z,955.83
2017-01-10T00:28:07.239Z,955.75
2017-01-10T00:29:07.720Z,955.84
2017-01-10T00:30:08.367Z,955.77
2017-01-10T00:31:07.952Z,955.79
2017-01-10T00:32:07.537Z,955.78
2017-01-10T00:33:08.038Z,955.78
2017-01-10T00:34:07.647Z,955.77
2017-01-10T00:35:08.322Z,955.75
2017-01-10T00:36:08.115Z,955.74
2017-01-10T00:37:07.633Z,955.75
2017-01-10T00:38:08.346Z,955.76
2017-01-10T00:39:07.899Z,955.72
2017-01-10T00:40:07.446Z,955.74
2017-01-10T00:41:08.029Z,955.71
2017-01-10T00:42:07.562Z,955.70
2017-01-10T00:44:07.579Z,955.66
2017-01-10T00:44:11.305Z,955.70
2017-01-10T00:45:07.890Z,955.67
2017-01-10T00:46:07.440Z,955.67
2017-01-10T00:47:07.903Z,955.68
2017-01-10T00:48:07.446Z,955.67
2017-01-10T00:49:07.957Z,955.68
2017-01-10T00:50:07.789Z,955.67
2017-01-10T00:51:07.275Z,955.65
2017-01-10T00:52:07.920Z,955.66
2017-01-10T00:53:07.473Z,955.65
2017-01-10T00:54:07.948Z,955.66
2017-01-10T00:55:07.559Z,955.64
2017-01-10T00:56:08.104Z,955.61
2017-01-10T00:57:07.788Z,955.56
2017-01-10T00:58:07.256Z,955.57
2017-01-10T00:59:07.853Z,955.57
2017-01-10T01:00:07.767Z,955.59
2017-01-10T01:01:08.217Z,955.56
2017-01-10T01:02:07.765Z,955.56
2017-01-10T01:03:07.277Z,955.51
2017-01-10T01:04:07.744Z,955.49
2017-01-10T01:05:08.147Z,955.49
2017-01-10T01:06:07.698Z,955.50
2017-01-10T01:07:08.156Z,955.46
2017-01-10T01:08:08.759Z,955.42
2017-01-10T01:09:08.310Z,955.42
2017-01-10T01:10:07.841Z,955.39
2017-01-10T01:11:07.421Z,955.36
2017-01-10T01:12:07.946Z,955.35
2017-01-10T01:13:07.470Z,955.34
2017-01-10T01:14:07.257Z,955.31
2017-01-10T01:15:08.220Z,955.30
2017-01-10T01:16:07.651Z,955.29
2017-01-10T01:17:07.957Z,955.25
2017-01-10T01:18:07.738Z,955.25
2017-01-10T01:19:08.259Z,955.26
2017-01-10T01:20:08.012Z,955.20
2017-01-10T01:21:07.596Z,955.20
2017-01-10T01:22:08.414Z,955.18
2017-01-10T01:23:08.168Z,955.12
2017-01-10T01:24:07.729Z,955.11
2017-01-10T01:25:07.885Z,955.09
2017-01-10T01:26:07.408Z,955.12
2017-01-10T01:27:07.991Z,955.13
2017-01-10T01:28:07.752Z,955.12
2017-01-10T01:29:08.506Z,955.10
2017-01-10T01:30:08.086Z,955.07
2017-01-10T01:31:07.838Z,955.09
2017-01-10T01:32:07.572Z,955.11
2017-01-10T01:33:08.117Z,955.03
2017-01-10T01:34:07.679Z,954.99
2017-01-10T01:35:08.343Z,954.94
2017-01-10T01:36:08.024Z,954.93
2017-01-10T01:37:07.512Z,954.89
2017-01-10T01:38:08.116Z,954.92
2017-01-10T01:39:07.739Z,954.88
2017-01-10T01:40:08.489Z,954.84
2017-01-10T01:41:08.161Z,954.82
2017-01-10T01:42:07.935Z,954.85
2017-01-10T01:43:07.456Z,954.83
2017-01-10T01:44:07.981Z,954.76
2017-01-10T01:45:07.526Z,954.75
2017-01-10T01:46:08.077Z,954.76
2017-01-10T01:47:07.655Z,954.78
2017-01-10T01:48:08.177Z,954.80
2017-01-10T01:49:07.746Z,954.76
2017-01-10T01:50:08.256Z,954.76
2017-01-10T01:51:07.806Z,954.70
2017-01-10T01:52:07.413Z,954.72
2017-01-10T01:53:07.955Z,954.65
2017-01-10T01:54:07.574Z,954.66
2017-01-10T01:55:08.078Z,954.66
2017-01-10T01:56:07.928Z,954.65
2017-01-10T01:57:07.728Z,954.67
2017-01-10T01:58:08.256Z,954.63
2017-01-10T01:59:07.851Z,954.68
2017-01-10T02:00:07.392Z,954.64
2017-01-10T02:01:07.976Z,954.65
2017-01-10T02:02:07.531Z,954.63
2017-01-10T02:03:08.058Z,954.58
2017-01-10T02:04:07.931Z,954.58
2017-01-10T02:05:07.610Z,954.55
2017-01-10T02:06:08.377Z,954.58
2017-01-10T02:07:08.360Z,954.53
2017-01-10T02:08:07.857Z,954.57
2017-01-10T02:09:07.635Z,954.55
2017-01-10T02:10:08.184Z,954.51
2017-01-10T02:11:07.733Z,954.53
2017-01-10T02:12:08.281Z,954.57
2017-01-10T02:13:07.780Z,954.50
2017-01-10T02:14:07.653Z,954.50
2017-01-10T02:15:08.174Z,954.49
2017-01-10T02:16:07.652Z,954.51
2017-01-10T02:17:08.301Z,954.60
2017-01-10T02:18:07.804Z,954.52
2017-01-10T02:19:07.404Z,954.49
2017-01-10T02:20:07.964Z,954.46
2017-01-10T02:21:07.791Z,954.46
2017-01-10T02:22:07.307Z,954.43
2017-01-10T02:24:08.095Z,954.42
2017-01-10T02:24:10.890Z,954.40
2017-01-10T02:25:07.696Z,954.38
2017-01-10T02:26:08.277Z,954.40
2017-01-10T02:27:07.904Z,954.41
2017-01-10T02:28:07.534Z,954.39
2017-01-10T02:29:08.117Z,954.37
2017-01-10T02:30:07.616Z,954.35
2017-01-10T02:31:08.041Z,954.28
2017-01-10T02:32:08.098Z,954.29
2017-01-10T02:33:07.598Z,954.29
2017-01-10T02:34:08.107Z,954.26
2017-01-10T02:35:07.715Z,954.24
2017-01-10T02:36:08.398Z,954.21
2017-01-10T02:37:08.051Z,954.16
2017-01-10T02:38:07.545Z,954.07
2017-01-10T02:39:08.195Z,954.10
2017-01-10T02:40:07.782Z,954.03
2017-01-10T02:41:07.248Z,954.05
2017-01-10T02:42:07.847Z,954.06
2017-01-10T02:43:07.475Z,953.98
2017-01-10T02:44:08.104Z,953.94
2017-01-10T02:45:07.736Z,953.91
2017-01-10T02:46:08.216Z,953.89
2017-01-10T02:47:08.039Z,953.90
2017-01-10T02:48:07.577Z,953.92
2017-01-10T02:49:08.040Z,953.90
2017-01-10T02:50:07.522Z,953.83
2017-01-10T02:51:08.321Z,953.81
2017-01-10T02:52:07.911Z,953.77
2017-01-10T02:53:07.415Z,953.78
2017-01-10T02:54:08.036Z,953.81
2017-01-10T02:55:08.354Z,953.77
2017-01-10T02:56:07.914Z,953.76
2017-01-10T02:57:07.442Z,953.76
2017-01-10T02:58:07.995Z,953.74
2017-01-10T02:59:07.484Z,953.72
2017-01-10T03:00:07.995Z,953.73
2017-01-10T03:01:07.527Z,953.73
2017-01-10T03:02:08.089Z,953.72
2017-01-10T03:03:07.946Z,953.73
2017-01-10T03:04:07.486Z,953.67
2017-01-10T03:05:08.125Z,953.64
2017-01-10T03:06:07.667Z,953.64
2017-01-10T03:07:22.738Z,953.66
2017-01-10T03:08:07.934Z,953.67
2017-01-10T03:09:07.482Z,953.65
2017-01-10T03:10:07.957Z,953.63
2017-01-10T03:11:07.425Z,953.65
2017-01-10T03:12:08.027Z,953.56
2017-01-10T03:13:07.717Z,953.57
2017-01-10T03:14:08.326Z,953.57
2017-01-10T03:16:11.002Z,953.58
2017-01-10T03:17:07.576Z,953.50
2017-01-10T03:18:08.331Z,953.55
2017-01-10T03:19:07.863Z,953.51
2017-01-10T03:20:07.695Z,953.52
2017-01-10T03:21:08.317Z,953.49
2017-01-10T03:22:07.965Z,953.53
2017-01-10T03:23:07.396Z,953.48
2017-01-10T03:24:08.176Z,953.52
2017-01-10T03:25:07.655Z,953.45
2017-01-10T03:26:08.571Z,953.43
2017-01-10T03:27:08.127Z,953.43
2017-01-10T03:28:07.666Z,953.41
2017-01-10T03:29:08.204Z,953.36
2017-01-10T03:30:07.689Z,953.36
2017-01-10T03:31:08.196Z,953.36
2017-01-10T03:32:07.665Z,953.27
2017-01-10T03:33:08.215Z,953.30
2017-01-10T03:34:07.716Z,953.23
2017-01-10T03:35:08.506Z,953.15
2017-01-10T03:36:08.005Z,953.17
2017-01-10T03:37:07.517Z,953.13
2017-01-10T03:38:08.004Z,953.14
2017-01-10T03:39:07.581Z,953.11
2017-01-10T03:40:08.138Z,953.05
2017-01-10T03:41:07.806Z,953.04
2017-01-10T03:42:07.308Z,953.08
2017-01-10T03:43:07.843Z,953.09
2017-01-10T03:44:07.415Z,953.02
2017-01-10T03:45:08.070Z,953.10
2017-01-10T03:46:07.586Z,953.04
2017-01-10T03:47:08.362Z,953.04
2017-01-10T03:48:07.906Z,953.01
2017-01-10T03:49:07.470Z,953.01
2017-01-10T03:50:08.036Z,952.99
2017-01-10T03:51:07.539Z,952.96
2017-01-10T03:52:08.124Z,952.98
2017-01-10T03:53:07.626Z,952.94
2017-01-10T03:54:08.256Z,952.94
2017-01-10T03:55:07.803Z,952.96
2017-01-10T03:56:07.383Z,952.96
2017-01-10T03:57:07.965Z,952.94
2017-01-10T03:58:07.854Z,952.96
2017-01-10T03:59:07.361Z,952.97
2017-01-10T04:00:08.131Z,952.95
2017-01-10T04:01:07.855Z,952.94
2017-01-10T04:02:07.398Z,952.97
2017-01-10T04:03:07.912Z,952.95
2017-01-10T04:04:07.387Z,952.95
2017-01-10T04:05:08.025Z,952.94
2017-01-10T04:07:10.656Z,952.91
2017-01-10T04:07:17.795Z,952.93
2017-01-10T04:08:08.206Z,952.92
2017-01-10T04:09:07.666Z,952.84
2017-01-10T04:10:08.250Z,952.87
2017-01-10T04:11:07.806Z,952.78
2017-01-10T04:12:07.406Z,952.82
2017-01-10T04:13:07.954Z,952.79
2017-01-10T04:14:07.421Z,952.86
2017-01-10T04:15:08.204Z,952.79
2017-01-10T04:16:07.811Z,952.77
2017-01-10T04:17:07.440Z,952.73
2017-01-10T04:18:08.132Z,952.72
2017-01-10T04:19:07.598Z,952.66
2017-01-10T04:20:08.216Z,952.69
2017-01-10T04:21:07.750Z,952.71
2017-01-10T04:22:08.321Z,952.70
2017-01-10T04:23:07.843Z,952.66
2017-01-10T04:24:07.408Z,952.69
2017-01-10T04:25:07.969Z,952.63
2017-01-10T04:26:08.594Z,952.62
2017-01-10T04:27:07.935Z,952.66
2017-01-10T04:28:07.382Z,952.64
2017-01-10T04:29:07.877Z,952.61
2017-01-10T04:30:07.519Z,952.56
2017-01-10T04:31:07.975Z,952.54
2017-01-10T04:32:08.188Z,952.51
2017-01-10T04:33:07.646Z,952.45
2017-01-10T04:34:08.096Z,952.52
2017-01-10T04:35:07.768Z,952.51
2017-01-10T04:36:07.292Z,952.46
2017-01-10T04:37:07.713Z,952.49
2017-01-10T04:38:07.478Z,952.40
2017-01-10T04:39:07.995Z,952.45
2017-01-10T04:40:07.587Z,952.44
2017-01-10T04:41:08.112Z,952.46
2017-01-10T04:42:07.657Z,952.44
2017-01-10T04:43:08.442Z,952.39
2017-01-10T04:44:07.988Z,952.40
2017-01-10T04:45:07.622Z,952.32
2017-01-10T04:46:08.493Z,952.26
2017-01-10T04:47:07.983Z,952.24
2017-01-10T04:48:07.422Z,952.22
2017-01-10T04:49:08.143Z,952.26
2017-01-10T04:50:07.776Z,952.22
2017-01-10T04:51:07.257Z,952.20
2017-01-10T04:52:07.747Z,952.21
2017-01-10T04:53:08.255Z,952.24
2017-01-10T04:54:08.673Z,952.31
2017-01-10T04:55:08.285Z,952.33
2017-01-10T04:56:08.094Z,952.23
2017-01-10T04:57:07.749Z,952.27
2017-01-10T04:58:08.170Z,952.21
2017-01-10T04:59:07.944Z,952.23
2017-01-10T05:00:07.661Z,952.23
2017-01-10T05:01:08.146Z,952.17
2017-01-10T05:02:07.595Z,952.14
2017-01-10T05:03:08.161Z,952.13
2017-01-10T05:04:07.678Z,952.06
2017-01-10T05:05:08.344Z,952.11
2017-01-10T05:06:08.136Z,952.10
2017-01-10T05:07:07.595Z,952.09
2017-01-10T05:08:08.119Z,952.16
2017-01-10T05:09:07.609Z,952.08
2017-01-10T05:10:08.205Z,952.03
2017-01-10T05:11:07.783Z,952.01
2017-01-10T05:12:07.617Z,952.06
2017-01-10T05:13:07.611Z,952.03
2017-01-10T05:14:08.067Z,952.06
2017-01-10T05:15:08.763Z,952.11
2017-01-10T05:16:07.284Z,952.04
2017-01-10T05:17:07.997Z,952.14
2017-01-10T05:18:07.452Z,952.14
2017-01-10T05:19:08.059Z,952.11
2017-01-10T05:20:07.642Z,952.13
2017-01-10T05:21:08.197Z,952.05
2017-01-10T05:22:07.707Z,952.02
2017-01-10T05:23:08.242Z,952.00
2017-01-10T05:24:07.804Z,952.00
2017-01-10T05:25:10.077Z,951.98
2017-01-10T05:26:07.598Z,951.98
2017-01-10T05:27:08.149Z,952.00
2017-01-10T05:28:07.645Z,951.98
2017-01-10T05:29:08.103Z,951.92
2017-01-10T05:30:08.127Z,951.88
2017-01-10T05:31:07.694Z,951.86
2017-01-10T05:32:08.279Z,951.80
2017-01-10T05:33:07.816Z,951.81
2017-01-10T05:34:07.627Z,951.76
2017-01-10T05:35:08.210Z,951.76
2017-01-10T05:36:07.832Z,951.80
2017-01-10T05:37:07.305Z,951.78
2017-01-10T05:38:07.819Z,951.79
2017-01-10T05:39:07.315Z,951.73
2017-01-10T05:40:07.810Z,951.79
2017-01-10T05:41:07.305Z,951.70
2017-01-10T05:42:07.810Z,951.71
2017-01-10T05:43:07.362Z,951.65
2017-01-10T05:44:07.823Z,951.61
2017-01-10T05:45:07.339Z,951.64
2017-01-10T05:46:07.896Z,951.60
2017-01-10T05:47:07.765Z,951.62
2017-01-10T05:48:07.355Z,951.59
2017-01-10T05:49:07.971Z,951.62
2017-01-10T05:50:07.514Z,951.54
2017-01-10T05:51:08.126Z,951.52
2017-01-10T05:52:07.679Z,951.50
2017-01-10T05:53:08.160Z,951.47
2017-01-10T05:54:07.825Z,951.43
2017-01-10T05:55:07.520Z,951.42
2017-01-10T05:56:08.116Z,951.51
2017-01-10T05:57:07.922Z,951.40
2017-01-10T05:58:07.411Z,951.53
2017-01-10T05:59:08.035Z,951.47
2017-01-10T06:00:07.535Z,951.43
2017-01-10T06:01:08.121Z,951.41
2017-01-10T06:02:07.678Z,951.40
2017-01-10T06:03:08.281Z,951.34
2017-01-10T06:04:07.802Z,951.40
2017-01-10T06:05:07.415Z,951.39
2017-01-10T06:06:07.955Z,951.44
2017-01-10T06:07:07.574Z,951.49
2017-01-10T06:08:08.126Z,951.50
2017-01-10T06:09:07.575Z,951.48
2017-01-10T06:10:08.167Z,951.49
2017-01-10T06:11:07.678Z,951.44
2017-01-10T06:12:08.192Z,951.43
2017-01-10T06:13:07.968Z,951.38
2017-01-10T06:14:07.512Z,951.42
2017-01-10T06:15:08.029Z,951.42
2017-01-10T06:17:10.817Z,951.43
2017-01-10T06:17:17.985Z,951.43
2017-01-10T06:18:07.461Z,951.43
2017-01-10T06:19:08.040Z,951.49
2017-01-10T06:20:07.599Z,951.38
2017-01-10T06:21:08.199Z,951.37
2017-01-10T06:22:07.714Z,951.39
2017-01-10T06:23:08.276Z,951.38
2017-01-10T06:24:07.816Z,951.39
2017-01-10T06:25:07.303Z,951.40
2017-01-10T06:26:07.857Z,951.47
2017-01-10T06:27:07.314Z,951.40
2017-01-10T06:28:07.936Z,951.33
2017-01-10T06:29:07.446Z,951.28
2017-01-10T06:30:08.183Z,951.26
2017-01-10T06:31:07.882Z,951.26
2017-01-10T06:32:07.406Z,951.23
2017-01-10T06:33:07.907Z,951.27
2017-01-10T06:34:07.369Z,951.27
2017-01-10T06:35:08.068Z,951.23
2017-01-10T06:36:07.717Z,951.26
2017-01-10T06:37:08.257Z,951.20
2017-01-10T06:38:07.780Z,951.13
2017-01-10T06:39:07.298Z,951.17
2017-01-10T06:40:07.814Z,951.14
2017-01-10T06:41:07.455Z,951.19
2017-01-10T06:42:08.016Z,951.18
2017-01-10T06:43:07.508Z,951.21
2017-01-10T06:44:08.342Z,951.17
2017-01-10T06:45:07.866Z,951.15
2017-01-10T06:46:07.392Z,951.13
2017-01-10T06:47:07.992Z,951.13
2017-01-10T06:48:07.661Z,951.15
2017-01-10T06:49:08.373Z,951.16
2017-01-10T06:50:07.881Z,951.18
2017-01-10T06:51:07.497Z,951.13
2017-01-10T06:52:08.009Z,951.15
2017-01-10T06:53:07.508Z,951.09
2017-01-10T06:54:08.287Z,951.16
2017-01-10T06:55:07.804Z,951.07
2017-01-10T06:56:07.377Z,951.11
2017-01-10T06:57:07.978Z,951.05
2017-01-10T06:58:07.451Z,951.06
2017-01-10T06:59:08.888Z,951.10
2017-01-10T07:00:07.466Z,951.06
2017-01-10T07:01:08.247Z,951.04
2017-01-10T07:02:07.699Z,951.05
2017-01-10T07:03:08.287Z,951.05
2017-01-10T07:04:07.905Z,951.03
2017-01-10T07:05:07.591Z,951.06
2017-01-10T07:06:08.139Z,951.04
2017-01-10T07:07:07.720Z,951.02
2017-01-10T07:08:08.571Z,950.98
2017-01-10T07:09:08.030Z,951.05
2017-01-10T07:10:07.585Z,951.03
2017-01-10T07:11:08.317Z,951.01
2017-01-10T07:12:07.807Z,951.04
2017-01-10T07:13:07.256Z,951.02
2017-01-10T07:14:07.740Z,950.99
2017-01-10T07:15:08.235Z,950.94
2017-01-10T07:16:07.811Z,950.96
2017-01-10T07:17:07.489Z,950.95
2017-01-10T07:18:08.047Z,950.96
2017-01-10T07:19:07.596Z,950.96
2017-01-10T07:20:08.447Z,950.95
2017-01-10T07:21:08.018Z,950.90
2017-01-10T07:22:07.499Z,950.89
2017-01-10T07:23:08.101Z,950.86
2017-01-10T07:24:07.571Z,950.87
2017-01-10T07:25:08.246Z,950.83
2017-01-10T07:26:08.224Z,950.82
2017-01-10T07:27:07.911Z,950.82
2017-01-10T07:28:07.406Z,950.78
2017-01-10T07:29:07.950Z,950.79
2017-01-10T07:30:07.469Z,950.81
2017-01-10T07:31:07.972Z,950.75
2017-01-10T07:32:07.490Z,950.76
2017-01-10T07:33:07.950Z,950.71
2017-01-10T07:34:07.492Z,950.68
2017-01-10T07:35:08.138Z,950.68
2017-01-10T07:36:07.630Z,950.64
2017-01-10T07:37:08.163Z,950.65
2017-01-10T07:38:07.745Z,950.62
2017-01-10T07:39:28.813Z,950.56
2017-01-10T07:40:07.358Z,950.56
2017-01-10T07:41:07.921Z,950.50
2017-01-10T07:42:07.471Z,950.54
2017-01-10T07:43:08.007Z,950.57
2017-01-10T07:44:07.587Z,950.58
2017-01-10T07:45:08.109Z,950.56
2017-01-10T07:46:07.567Z,950.54
2017-01-10T07:47:08.361Z,950.54
2017-01-10T07:48:08.051Z,950.53
2017-01-10T07:49:07.532Z,950.48
2017-01-10T07:50:08.166Z,950.49
2017-01-10T07:51:07.777Z,950.50
2017-01-10T07:52:07.329Z,950.52
2017-01-10T07:53:08.178Z,950.55
2017-01-10T07:54:07.700Z,950.57
2017-01-10T07:55:08.149Z,950.56
2017-01-10T07:56:07.714Z,950.54
2017-01-10T07:57:08.228Z,950.55
2017-01-10T07:58:07.781Z,950.51
2017-01-10T07:59:07.377Z,950.47
2017-01-10T08:00:07.917Z,950.46
2017-01-10T08:01:07.489Z,950.48
2017-01-10T08:02:07.979Z,950.40
2017-01-10T08:03:07.490Z,950.43
2017-01-10T08:04:08.000Z,950.44
2017-01-10T08:05:07.564Z,950.40
2017-01-10T08:06:08.134Z,950.46
2017-01-10T08:07:07.774Z,950.45
2017-01-10T08:08:07.305Z,950.44
2017-01-10T08:09:07.848Z,950.45
2017-01-10T08:10:07.619Z,950.46
2017-01-10T08:11:08.423Z,950.46
2017-01-10T08:12:07.948Z,950.46
2017-01-10T08:13:07.463Z,950.50
2017-01-10T08:14:07.953Z,950.50
2017-01-10T08:15:07.420Z,950.47
2017-01-10T08:16:08.001Z,950.41
2017-01-10T08:17:07.647Z,950.41
2017-01-10T08:18:08.190Z,950.41
2017-01-10T08:19:07.652Z,950.40
2017-01-10T08:20:08.200Z,950.39
2017-01-10T08:21:08.055Z,950.37
2017-01-10T08:22:07.694Z,950.38
2017-01-10T08:23:08.207Z,950.39
2017-01-10T08:24:07.638Z,950.36
2017-01-10T08:25:08.186Z,950.40
2017-01-10T08:26:07.784Z,950.38
2017-01-10T08:27:07.368Z,950.41
2017-01-10T08:28:07.973Z,950.35
2017-01-10T08:29:07.546Z,950.40
2017-01-10T08:30:08.059Z,950.34
2017-01-10T08:31:07.685Z,950.36
2017-01-10T08:32:08.222Z,950.31
2017-01-10T08:33:07.794Z,950.29
2017-01-10T08:34:07.270Z,950.28
2017-01-10T08:35:07.896Z,950.27
2017-01-10T08:36:07.379Z,950.23
2017-01-10T08:37:07.907Z,950.26
2017-01-10T08:38:07.612Z,950.28
2017-01-10T08:39:08.055Z,950.27
2017-01-10T08:40:07.752Z,950.23
2017-01-10T08:41:08.354Z,950.28
2017-01-10T08:42:08.003Z,950.19
2017-01-10T08:43:07.591Z,950.15
2017-01-10T08:44:08.144Z,950.18
2017-01-10T08:45:07.670Z,950.20
2017-01-10T08:46:08.255Z,950.14
2017-01-10T08:47:07.770Z,950.11
2017-01-10T08:48:07.468Z,950.09
2017-01-10T08:49:07.996Z,950.12
2017-01-10T08:50:07.600Z,950.11
2017-01-10T08:51:08.109Z,950.15
2017-01-10T08:52:07.579Z,950.15
2017-01-10T08:53:08.150Z,950.12
2017-01-10T08:54:07.779Z,950.14
2017-01-10T08:55:07.284Z,950.05
2017-01-10T08:56:07.757Z,950.04
2017-01-10T08:57:07.508Z,950.06
2017-01-10T08:58:08.076Z,949.99
2017-01-10T08:59:07.660Z,949.96
2017-01-10T09:00:08.212Z,949.92
2017-01-10T09:01:07.824Z,949.93
2017-01-10T09:02:07.333Z,949.94
2017-01-10T09:03:07.861Z,949.91
2017-01-10T09:04:07.577Z,949.94
2017-01-10T09:05:08.323Z,949.97
2017-01-10T09:06:07.875Z,950.00
2017-01-10T09:07:07.627Z,949.95
2017-01-10T09:08:08.238Z,950.04
2017-01-10T09:09:07.705Z,950.01
2017-01-10T09:10:08.238Z,950.01
2017-01-10T09:11:07.732Z,950.00
2017-01-10T09:12:08.308Z,950.00
2017-01-10T09:13:08.101Z,950.03
2017-01-10T09:14:07.660Z,950.03
2017-01-10T09:15:08.456Z,950.05
2017-01-10T09:16:08.042Z,950.01
2017-01-10T09:17:07.799Z,950.08
2017-01-10T09:18:07.598Z,950.03
2017-01-10T09:19:08.227Z,950.05
2017-01-10T09:20:07.762Z,949.99
2017-01-10T09:21:07.289Z,950.04
2017-01-10T09:22:07.795Z,950.00
2017-01-10T09:23:07.303Z,950.04
2017-01-10T09:24:07.899Z,950.05
2017-01-10T09:25:07.433Z,950.06
2017-01-10T09:26:07.960Z,950.01
2017-01-10T09:27:07.532Z,949.97
2017-01-10T09:28:08.071Z,949.98
2017-01-10T09:29:07.672Z,949.97
2017-01-10T09:30:08.503Z,949.98
2017-01-10T09:31:08.052Z,950.04
2017-01-10T09:32:07.688Z,950.01
2017-01-10T09:33:08.302Z,949.98
2017-01-10T09:34:07.832Z,949.91
2017-01-10T09:35:07.401Z,949.91
2017-01-10T09:36:07.992Z,949.87
2017-01-10T09:37:07.589Z,949.90
2017-01-10T09:38:08.189Z,949.88
2017-01-10T09:39:07.743Z,949.94
2017-01-10T09:40:08.182Z,949.89
2017-01-10T09:41:07.803Z,949.94
2017-01-10T09:42:07.358Z,949.91
2017-01-10T09:43:07.860Z,949.89
2017-01-10T09:44:07.327Z,949.89
2017-01-10T09:45:07.855Z,949.85
2017-01-10T09:46:07.628Z,949.84
2017-01-10T09:47:08.203Z,949.84
2017-01-10T09:48:07.658Z,949.80
2017-01-10T09:49:08.299Z,949.80
2017-01-10T09:50:07.900Z,949.77
2017-01-10T09:51:07.737Z,949.78
2017-01-10T09:52:07.226Z,949.78
2017-01-10T09:53:07.824Z,949.73
2017-01-10T09:54:07.288Z,949.76
2017-01-10T09:55:07.774Z,949.76
2017-01-10T09:56:07.297Z,949.75
2017-01-10T09:57:07.784Z,949.76
2017-01-10T09:58:07.325Z,949.74
2017-01-10T09:59:07.777Z,949.71
2017-01-10T10:00:07.307Z,949.68
2017-01-10T10:01:07.826Z,949.70
2017-01-10T10:02:07.353Z,949.69
2017-01-10T10:03:07.873Z,949.69
2017-01-10T10:04:28.058Z,949.66
2017-01-10T10:05:07.768Z,949.64
2017-01-10T10:06:07.233Z,949.66
2017-01-10T10:07:07.739Z,949.66
2017-01-10T10:08:08.269Z,949.68
2017-01-10T10:09:07.838Z,949.70
2017-01-10T10:10:07.383Z,949.69
2017-01-10T10:11:07.952Z,949.60
2017-01-10T10:12:07.527Z,949.63
2017-01-10T10:13:08.120Z,949.60
2017-01-10T10:14:07.614Z,949.56
2017-01-10T10:15:08.168Z,949.60
2017-01-10T10:16:07.706Z,949.59
2017-01-10T10:17:08.311Z,949.56
2017-01-10T10:18:07.871Z,949.57
2017-01-10T10:19:07.396Z,949.55
2017-01-10T10:20:07.984Z,949.53
2017-01-10T10:21:07.573Z,949.54
2017-01-10T10:22:08.104Z,949.56
2017-01-10T10:23:07.682Z,949.57
2017-01-10T10:24:27.796Z,949.56
2017-01-10T10:25:07.518Z,949.58
2017-01-10T10:26:08.092Z,949.56
2017-01-10T10:27:07.888Z,949.51
2017-01-10T10:28:07.451Z,949.51
2017-01-10T10:29:08.056Z,949.47
2017-01-10T10:30:07.514Z,949.45
2017-01-10T10:31:08.074Z,949.45
2017-01-10T10:32:07.599Z,949.44
2017-01-10T10:33:08.136Z,949.44
2017-01-10T10:34:07.684Z,949.40
2017-01-10T10:35:08.118Z,949.40
2017-01-10T10:36:07.391Z,949.35
2017-01-10T10:37:07.935Z,949.35
2017-01-10T10:38:07.728Z,949.31
2017-01-10T10:39:08.347Z,949.33
2017-01-10T10:40:08.190Z,949.28
2017-01-10T10:41:07.739Z,949.25
2017-01-10T10:42:07.317Z,949.24
2017-01-10T10:43:07.871Z,949.19
2017-01-10T10:44:07.529Z,949.22
2017-01-10T10:45:08.038Z,949.22
2017-01-10T10:46:07.590Z,949.23
2017-01-10T10:47:08.240Z,949.18
2017-01-10T10:48:07.774Z,949.15
2017-01-10T10:49:07.349Z,949.14
2017-01-10T10:50:27.446Z,949.16
2017-01-10T10:51:07.991Z,949.10
2017-01-10T10:52:07.857Z,949.06
2017-01-10T10:53:07.386Z,949.07
2017-01-10T10:54:07.907Z,949.09
2017-01-10T10:55:07.419Z,949.04
2017-01-10T10:56:08.010Z,949.06
2017-01-10T10:57:07.522Z,948.97
2017-01-10T10:58:08.075Z,948.99
2017-01-10T10:59:07.582Z,949.00
2017-01-10T11:00:08.060Z,948.96
2017-01-10T11:01:07.570Z,948.99
2017-01-10T11:02:08.118Z,948.98
2017-01-10T11:03:07.708Z,949.00
2017-01-10T11:04:08.305Z,948.95
2017-01-10T11:05:07.963Z,948.96
2017-01-10T11:06:07.433Z,948.93
2017-01-10T11:07:08.041Z,948.90
2017-01-10T11:08:07.559Z,948.89
2017-01-10T11:09:08.056Z,948.96
2017-01-10T11:10:07.579Z,948.93
2017-01-10T11:11:08.095Z,948.92
2017-01-10T11:12:07.595Z,948.97
2017-01-10T11:13:08.225Z,948.92
2017-01-10T11:14:07.888Z,948.90
2017-01-10T11:15:07.387Z,948.88
2017-01-10T11:16:07.921Z,948.86
2017-01-10T11:17:07.607Z,948.87
2017-01-10T11:18:08.147Z,948.89
2017-01-10T11:19:07.632Z,948.85
2017-01-10T11:20:08.202Z,948.83
2017-01-10T11:21:07.729Z,948.80
2017-01-10T11:22:08.292Z,948.78
2017-01-10T11:23:07.746Z,948.82
2017-01-10T11:24:07.351Z,948.76
2017-01-10T11:25:24.516Z,948.78
2017-01-10T11:26:08.315Z,948.78
2017-01-10T11:27:07.923Z,948.76
2017-01-10T11:28:07.521Z,948.77
2017-01-10T11:29:08.008Z,948.78
2017-01-10T11:30:07.608Z,948.82
2017-01-10T11:31:08.155Z,948.81
2017-01-10T11:32:07.927Z,948.82
2017-01-10T11:33:07.442Z,948.78
2017-01-10T11:34:07.976Z,948.80
2017-01-10T11:35:07.648Z,948.74
2017-01-10T11:36:08.246Z,948.74
2017-01-10T11:37:07.774Z,948.71
2017-01-10T11:38:07.345Z,948.69
2017-01-10T11:39:08.109Z,948.73
2017-01-10T11:40:07.670Z,948.67
2017-01-10T11:41:08.247Z,948.60
2017-01-10T11:42:07.776Z,948.61
2017-01-10T11:43:07.306Z,948.65
2017-01-10T11:44:07.785Z,948.60
2017-01-10T11:45:07.298Z,948.57
2017-01-10T11:46:07.941Z,948.61
2017-01-10T11:47:07.489Z,948.59
2017-01-10T11:48:08.017Z,948.61
2017-01-10T11:49:07.536Z,948.54
2017-01-10T11:50:08.150Z,948.55
2017-01-10T11:51:07.687Z,948.53
2017-01-10T11:52:08.249Z,948.56
2017-01-10T11:53:07.849Z,948.54
2017-01-10T11:54:07.422Z,948.53
2017-01-10T11:55:08.040Z,948.50
2017-01-10T11:56:07.798Z,948.48
2017-01-10T11:57:07.362Z,948.48
2017-01-10T11:58:07.946Z,948.41
2017-01-10T11:59:07.677Z,948.41
2017-01-10T12:00:08.237Z,948.46
2017-01-10T12:01:07.744Z,948.45
2017-01-10T12:02:07.480Z,948.41
2017-01-10T12:03:08.127Z,948.42
2017-01-10T12:04:07.692Z,948.43
2017-01-10T12:05:08.348Z,948.43
2017-01-10T12:06:07.859Z,948.39
2017-01-10T12:07:07.439Z,948.42
2017-01-10T12:08:08.002Z,948.40
2017-01-10T12:09:07.555Z,948.31
2017-01-10T12:10:08.193Z,948.30
2017-01-10T12:11:07.738Z,948.33
2017-01-10T12:12:07.267Z,948.30
2017-01-10T12:13:07.819Z,948.29
2017-01-10T12:14:07.277Z,948.32
2017-01-10T12:15:07.704Z,948.27
2017-01-10T12:16:07.867Z,948.26
2017-01-10T12:17:07.498Z,948.28
2017-01-10T12:18:08.114Z,948.22
2017-01-10T12:19:07.583Z,948.22
2017-01-10T12:20:08.171Z,948.21
2017-01-10T12:21:07.694Z,948.23
2017-01-10T12:22:08.331Z,948.24
2017-01-10T12:23:07.910Z,948.20
2017-01-10T12:24:07.456Z,948.17
2017-01-10T12:25:07.974Z,948.15
2017-01-10T12:26:07.531Z,948.13
2017-01-10T12:27:08.091Z,948.19
2017-01-10T12:28:07.610Z,948.08
2017-01-10T12:29:08.204Z,948.06